首页
METAR-TAF:

METAR-TAF

机场 :

拉梅齊亞泰爾梅, 意大利

纬度: 38-54N, 经度: 016-15E, 海拔: 15米

当前天气观测

该预报发布于35分钟前的11:50 UTC
风速6节,风向西转西南,在南转西南西转西北之间变化
温度 22°C
湿度 33%
气压 1024 hPa
能见度10公里或以上

METAR: LICA 211150Z AUTO 25006KT 210V290 9999 NCD 22/05 Q1024

时间: 14:25 (12:25 UTC)

预报

该预报发布于1小时和25分钟前的11:00 UTC
预报有效从21日的 12点(UTC)到 22日的 12点(UTC)
风速10节,风向西
能见度10公里或以上
散云层高于3000英尺
成为
从 21日的 16点(UTC)到 21日的 18点(UTC)
风速7节,风向东转东北
成为
从 22日的 08点(UTC)到 22日的 10点(UTC)
风速10节,风向西

TAF: LICA 211100Z 2112/2212 26010KT 9999 SCT030 BECMG 2116/2118 07007KT BECMG 2208/2210 26010KT

超过4000个机场的气象观测和天气预报(METAR&TAF报告)。

可查询的气象台以黄色和红色小点在地图上表示。

将鼠标移到小点上方,可查看气象台名称。

然后点击查看天气观测和预报。

如需切换地图:点击带黑十字的绿色按钮放大地图;点击带横线的绿色按钮缩小地图;或者点击绿色箭头查看邻近地区的地图。


METAR-TAF: